createdAt,value
2018-03-04T00:01:48.814Z,3.40
2018-03-04T00:04:17.982Z,3.40
2018-03-04T00:06:47.138Z,3.40
2018-03-04T00:09:15.507Z,3.40
2018-03-04T00:11:44.146Z,3.50
2018-03-04T00:14:13.371Z,3.40
2018-03-04T00:16:41.883Z,3.40
2018-03-04T00:19:10.458Z,3.30
2018-03-04T00:21:38.937Z,3.30
2018-03-04T00:24:07.366Z,3.30
2018-03-04T00:26:36.680Z,3.20
2018-03-04T00:29:05.852Z,3.20
2018-03-04T00:31:35.941Z,3.20
2018-03-04T00:34:05.750Z,3.20
2018-03-04T00:36:34.478Z,3.20
2018-03-04T00:39:03.678Z,3.20
2018-03-04T00:41:32.838Z,3.20
2018-03-04T00:44:01.279Z,3.10
2018-03-04T00:46:29.674Z,3.20
2018-03-04T00:48:58.214Z,3.20
2018-03-04T00:51:27.558Z,3.20
2018-03-04T00:53:55.977Z,3.20
2018-03-04T00:56:25.161Z,3.20
2018-03-04T00:58:53.609Z,3.10
2018-03-04T01:01:22.012Z,3.20
2018-03-04T01:03:50.494Z,3.20
2018-03-04T01:06:18.979Z,3.30
2018-03-04T01:08:47.459Z,3.20
2018-03-04T01:11:15.836Z,3.20
2018-03-04T01:13:44.207Z,3.20
2018-03-04T01:16:12.648Z,3.30
2018-03-04T01:18:41.081Z,3.30
2018-03-04T01:21:09.526Z,3.30
2018-03-04T01:23:37.949Z,3.30
2018-03-04T01:26:06.494Z,3.30
2018-03-04T01:28:34.918Z,3.40
2018-03-04T01:31:03.341Z,3.50
2018-03-04T01:33:31.750Z,3.40
2018-03-04T01:36:00.173Z,3.50
2018-03-04T01:38:29.396Z,3.40
2018-03-04T01:40:57.810Z,3.40
2018-03-04T01:43:26.525Z,3.40
2018-03-04T01:45:55.681Z,3.50
2018-03-04T01:48:24.169Z,3.40
2018-03-04T01:50:52.738Z,3.40
2018-03-04T01:53:21.123Z,3.30
2018-03-04T01:55:49.577Z,3.30
2018-03-04T01:58:17.942Z,3.40
2018-03-04T02:00:46.492Z,3.40
2018-03-04T02:03:14.917Z,3.40
2018-03-04T02:05:43.524Z,3.30
2018-03-04T02:08:11.903Z,3.30
2018-03-04T02:10:40.280Z,3.30
2018-03-04T02:13:08.771Z,3.30
2018-03-04T02:15:37.140Z,3.30
2018-03-04T02:18:05.582Z,3.30
2018-03-04T02:20:34.769Z,3.20
2018-03-04T02:23:04.721Z,3.30
2018-03-04T02:25:33.089Z,3.20
2018-03-04T02:28:01.509Z,3.20
2018-03-04T02:30:29.901Z,3.20
2018-03-04T02:32:58.277Z,3.20
2018-03-04T02:35:27.371Z,3.20
2018-03-04T02:37:56.345Z,3.20
2018-03-04T02:40:25.996Z,3.20
2018-03-04T02:42:55.896Z,3.20
2018-03-04T02:45:24.846Z,3.10
2018-03-04T02:47:53.811Z,3.00
2018-03-04T02:50:22.654Z,2.80
2018-03-04T02:52:53.149Z,2.70
2018-03-04T02:55:23.101Z,2.70
2018-03-04T02:57:52.283Z,2.80
2018-03-04T03:00:20.654Z,2.70
2018-03-04T03:02:49.025Z,2.80
2018-03-04T03:05:17.470Z,2.80
2018-03-04T03:07:45.995Z,2.90
2018-03-04T03:10:14.395Z,2.90
2018-03-04T03:12:42.812Z,2.90
2018-03-04T03:15:11.590Z,2.90
2018-03-04T03:17:40.731Z,2.90
2018-03-04T03:20:09.098Z,2.80
2018-03-04T03:22:37.546Z,2.90
2018-03-04T03:25:06.734Z,2.90
2018-03-04T03:27:35.939Z,3.00
2018-03-04T03:30:05.078Z,3.00
2018-03-04T03:32:33.963Z,2.90
2018-03-04T03:35:02.397Z,3.00
2018-03-04T03:37:31.590Z,3.00
2018-03-04T03:40:00.798Z,3.00
2018-03-04T03:42:30.018Z,3.00
2018-03-04T03:44:58.465Z,3.00
2018-03-04T03:47:27.653Z,3.00
2018-03-04T03:49:56.411Z,3.00
2018-03-04T03:52:24.835Z,3.00
2018-03-04T03:54:54.083Z,3.00
2018-03-04T03:57:22.671Z,3.00
2018-03-04T03:59:51.257Z,3.00
2018-03-04T04:02:20.505Z,3.00
2018-03-04T04:04:50.404Z,3.00
2018-03-04T04:07:19.612Z,3.00
2018-03-04T04:09:48.816Z,3.00
2018-03-04T04:12:18.001Z,3.00
2018-03-04T04:14:47.165Z,2.90
2018-03-04T04:17:15.572Z,2.90
2018-03-04T04:19:44.836Z,2.70
2018-03-04T04:22:13.254Z,2.80
2018-03-04T04:24:42.935Z,2.80
2018-03-04T04:27:11.356Z,2.70
2018-03-04T04:29:39.849Z,2.70
2018-03-04T04:32:08.250Z,2.70
2018-03-04T04:34:36.668Z,2.70
2018-03-04T04:37:05.113Z,2.60
2018-03-04T04:39:33.572Z,2.60
2018-03-04T04:42:02.349Z,2.60
2018-03-04T04:44:31.077Z,2.50
2018-03-04T04:46:59.509Z,2.40
2018-03-04T04:49:28.717Z,2.30
2018-03-04T04:51:57.234Z,2.30
2018-03-04T04:54:25.956Z,2.20
2018-03-04T04:56:55.145Z,2.20
2018-03-04T04:59:23.535Z,2.20
2018-03-04T05:01:51.994Z,2.20
2018-03-04T05:04:20.563Z,2.20
2018-03-04T05:06:49.556Z,2.20
2018-03-04T05:09:17.946Z,2.20
2018-03-04T05:11:46.516Z,2.20
2018-03-04T05:14:14.917Z,2.10
2018-03-04T05:16:43.484Z,2.10
2018-03-04T05:19:12.050Z,2.00
2018-03-04T05:21:40.541Z,2.10
2018-03-04T05:24:08.930Z,2.00
2018-03-04T05:26:37.445Z,2.00
2018-03-04T05:29:06.630Z,1.90
2018-03-04T05:31:35.373Z,1.80
2018-03-04T05:34:03.794Z,1.80
2018-03-04T05:36:33.920Z,1.90
2018-03-04T05:39:03.198Z,1.90
2018-03-04T05:41:31.577Z,1.90
2018-03-04T05:44:00.246Z,1.90
2018-03-04T05:46:28.678Z,1.80
2018-03-04T05:48:57.051Z,1.80
2018-03-04T05:51:26.249Z,1.70
2018-03-04T05:53:55.637Z,1.70
2018-03-04T05:56:24.229Z,1.70
2018-03-04T05:58:53.408Z,1.60
2018-03-04T06:01:21.998Z,1.60
2018-03-04T06:03:50.393Z,1.60
2018-03-04T06:06:19.558Z,1.70
2018-03-04T06:08:48.005Z,1.60
2018-03-04T06:11:17.293Z,1.70
2018-03-04T06:13:46.039Z,1.70
2018-03-04T06:16:14.490Z,1.70
2018-03-04T06:18:42.858Z,1.70
2018-03-04T06:21:11.263Z,1.70
2018-03-04T06:23:39.676Z,1.60
2018-03-04T06:26:08.868Z,1.80
2018-03-04T06:28:38.630Z,1.80
2018-03-04T06:31:07.055Z,1.80
2018-03-04T06:33:36.221Z,2.00
2018-03-04T06:36:04.676Z,1.90
2018-03-04T06:38:33.262Z,2.00
2018-03-04T06:41:02.406Z,2.00
2018-03-04T06:43:31.597Z,2.20
2018-03-04T06:46:00.796Z,2.30
2018-03-04T06:48:29.166Z,2.30
2018-03-04T06:50:57.966Z,2.40
2018-03-04T06:53:27.149Z,2.80
2018-03-04T06:55:55.518Z,2.80
2018-03-04T06:58:23.906Z,3.00
2018-03-04T07:00:53.035Z,3.40
2018-03-04T07:03:21.870Z,3.40
2018-03-04T07:05:50.240Z,3.60
2018-03-04T07:08:18.656Z,3.70
2018-03-04T07:10:47.062Z,3.80
2018-03-04T07:13:16.199Z,4.00
2018-03-04T07:15:45.093Z,4.00
2018-03-04T07:18:13.468Z,4.20
2018-03-04T07:20:41.839Z,4.40
2018-03-04T07:23:10.277Z,4.50
2018-03-04T07:25:39.409Z,4.60
2018-03-04T07:28:08.015Z,4.60
2018-03-04T07:30:36.389Z,4.80
2018-03-04T07:33:04.770Z,5.00
2018-03-04T07:35:33.158Z,5.20
2018-03-04T07:38:01.539Z,5.50
2018-03-04T07:40:29.966Z,5.70
2018-03-04T07:42:58.343Z,6.00
2018-03-04T07:45:26.719Z,6.10
2018-03-04T07:47:55.113Z,6.30
2018-03-04T07:50:23.482Z,6.40
2018-03-04T07:52:52.286Z,6.50
2018-03-04T07:55:20.683Z,6.70
2018-03-04T07:57:49.100Z,7.00
2018-03-04T08:00:18.260Z,7.30
2018-03-04T08:02:46.643Z,7.30
2018-03-04T08:05:15.308Z,7.60
2018-03-04T08:07:43.674Z,7.80
2018-03-04T08:10:12.054Z,8.30
2018-03-04T08:12:40.454Z,8.50
2018-03-04T08:15:08.829Z,8.80
2018-03-04T08:17:37.398Z,9.50
2018-03-04T08:20:05.773Z,10.50
2018-03-04T08:22:34.150Z,11.20
2018-03-04T08:25:20.337Z,12.00
2018-03-04T08:28:06.613Z,13.00
2018-03-04T08:30:35.812Z,15.10
2018-03-04T08:33:04.960Z,16.10
2018-03-04T08:35:33.362Z,16.00
2018-03-04T08:38:01.743Z,17.00
2018-03-04T08:40:30.633Z,17.90
2018-03-04T08:42:59.031Z,18.50
2018-03-04T08:45:28.178Z,19.60
2018-03-04T08:47:56.590Z,19.60
2018-03-04T08:50:26.482Z,19.90
2018-03-04T08:52:54.902Z,19.90
2018-03-04T08:55:24.054Z,20.80
2018-03-04T08:57:58.481Z,20.80
2018-03-04T09:00:26.879Z,21.00
2018-03-04T09:02:56.775Z,21.80
2018-03-04T09:05:25.188Z,21.80
2018-03-04T09:07:54.374Z,22.40
2018-03-04T09:10:23.909Z,22.80
2018-03-04T09:12:52.729Z,22.70
2018-03-04T09:15:22.179Z,23.60
2018-03-04T09:17:50.582Z,23.60
2018-03-04T09:20:19.049Z,23.90
2018-03-04T09:22:47.464Z,24.20
2018-03-04T09:25:15.841Z,24.40
2018-03-04T09:27:44.280Z,24.70
2018-03-04T09:30:13.431Z,24.70
2018-03-04T09:32:42.213Z,24.70
2018-03-04T09:35:11.646Z,24.90
2018-03-04T09:37:40.148Z,24.90
2018-03-04T09:40:09.421Z,24.80
2018-03-04T09:42:39.201Z,24.80
2018-03-04T09:45:07.689Z,24.90
2018-03-04T09:47:37.150Z,24.70
2018-03-04T09:50:07.093Z,25.00
2018-03-04T09:52:36.368Z,25.00
2018-03-04T09:55:05.987Z,25.40
2018-03-04T09:57:34.386Z,25.30
2018-03-04T10:00:02.765Z,25.50
2018-03-04T10:02:31.634Z,25.60
2018-03-04T10:05:00.011Z,26.00
2018-03-04T10:07:28.578Z,26.40
2018-03-04T10:09:57.048Z,26.60
2018-03-04T10:12:26.513Z,26.70
2018-03-04T10:14:55.051Z,26.70
2018-03-04T10:17:23.691Z,26.30
2018-03-04T10:19:52.198Z,25.80
2018-03-04T10:22:21.452Z,25.90
2018-03-04T10:24:50.484Z,25.90
2018-03-04T10:27:19.634Z,26.40
2018-03-04T10:29:48.462Z,26.40
2018-03-04T10:32:16.866Z,26.70
2018-03-04T10:34:46.012Z,27.00
2018-03-04T10:37:14.425Z,27.00
2018-03-04T10:39:43.592Z,27.80
2018-03-04T10:42:12.006Z,27.70
2018-03-04T10:44:41.335Z,27.60
2018-03-04T10:47:09.954Z,27.60
2018-03-04T10:49:38.739Z,27.60
2018-03-04T10:52:08.205Z,28.70
2018-03-04T10:54:37.028Z,28.70
2018-03-04T10:57:05.444Z,28.90
2018-03-04T10:59:33.846Z,29.10
2018-03-04T11:02:05.218Z,29.00
2018-03-04T11:04:33.890Z,28.90
2018-03-04T11:07:02.347Z,28.90
2018-03-04T11:09:32.566Z,28.40
2018-03-04T11:12:02.007Z,28.40
2018-03-04T11:14:30.978Z,28.40
2018-03-04T11:17:00.203Z,28.10
2018-03-04T11:19:28.662Z,28.10
2018-03-04T11:21:57.136Z,28.70
2018-03-04T11:24:25.562Z,29.00
2018-03-04T11:26:54.511Z,28.50
2018-03-04T11:29:22.913Z,28.10
2018-03-04T11:31:51.309Z,27.90
2018-03-04T11:34:19.727Z,27.80
2018-03-04T11:36:48.886Z,26.60
2018-03-04T11:39:17.433Z,26.60
2018-03-04T11:41:45.859Z,26.80
2018-03-04T11:44:14.393Z,27.20
2018-03-04T11:46:42.784Z,27.40
2018-03-04T11:49:11.253Z,27.20
2018-03-04T11:51:39.694Z,27.10
2018-03-04T11:54:08.099Z,27.70
2018-03-04T11:56:37.838Z,28.40
2018-03-04T11:59:06.214Z,28.40
2018-03-04T12:01:35.940Z,27.70
2018-03-04T12:04:04.531Z,27.70
2018-03-04T12:06:32.980Z,27.90
2018-03-04T12:09:01.386Z,28.30
2018-03-04T12:11:29.841Z,28.40
2018-03-04T12:13:59.111Z,28.00
2018-03-04T12:16:27.600Z,28.10
2018-03-04T12:18:57.479Z,27.70
2018-03-04T12:21:25.879Z,28.10
2018-03-04T12:23:55.173Z,28.40
2018-03-04T12:26:24.346Z,29.60
2018-03-04T12:28:52.918Z,29.50
2018-03-04T12:31:21.375Z,29.40
2018-03-04T12:33:50.761Z,29.90
2018-03-04T12:36:20.306Z,30.50
2018-03-04T12:38:48.712Z,30.60
2018-03-04T12:41:17.899Z,30.70
2018-03-04T12:43:47.326Z,31.50
2018-03-04T12:46:16.480Z,32.00
2018-03-04T12:48:44.963Z,31.90
2018-03-04T12:51:13.346Z,32.10
2018-03-04T12:53:41.923Z,31.90
2018-03-04T12:56:11.443Z,31.80
2018-03-04T12:58:40.305Z,31.30
2018-03-04T13:01:09.587Z,31.20
2018-03-04T13:03:38.510Z,31.70
2018-03-04T13:06:07.121Z,32.00
2018-03-04T13:08:37.175Z,32.10
2018-03-04T13:11:05.988Z,32.10
2018-03-04T13:13:34.481Z,32.30
2018-03-04T13:16:03.979Z,31.80
2018-03-04T13:18:33.382Z,31.70
2018-03-04T13:21:01.895Z,31.70
2018-03-04T13:23:30.724Z,32.10
2018-03-04T13:25:59.486Z,32.30
2018-03-04T13:28:29.709Z,31.70
2018-03-04T13:30:59.104Z,31.60
2018-03-04T13:33:27.523Z,31.50
2018-03-04T13:35:56.949Z,30.90
2018-03-04T13:38:25.578Z,29.80
2018-03-04T13:40:54.353Z,29.70
2018-03-04T13:43:23.115Z,29.80
2018-03-04T13:45:52.335Z,30.50
2018-03-04T13:48:22.098Z,30.20
2018-03-04T13:50:50.739Z,30.20
2018-03-04T13:56:20.513Z,30.40
2018-03-04T13:58:48.895Z,30.50
2018-03-04T14:01:17.375Z,30.80
2018-03-04T14:03:45.777Z,31.20
2018-03-04T14:06:14.220Z,31.60
2018-03-04T14:08:42.625Z,31.60
2018-03-04T14:11:11.231Z,31.90
2018-03-04T14:13:39.887Z,31.50
2018-03-04T14:16:08.777Z,31.60
2018-03-04T14:18:37.174Z,31.80
2018-03-04T14:21:05.575Z,31.50
2018-03-04T14:23:34.032Z,30.30
2018-03-04T14:26:02.475Z,28.20
2018-03-04T14:28:32.532Z,23.20
2018-03-04T14:31:01.197Z,23.10
2018-03-04T14:33:29.578Z,20.90
2018-03-04T14:35:57.967Z,19.30
2018-03-04T14:38:26.388Z,17.80
2018-03-04T14:40:55.535Z,16.10
2018-03-04T14:43:24.010Z,16.00
2018-03-04T14:45:52.506Z,16.10
2018-03-04T14:48:21.381Z,16.20
2018-03-04T14:50:49.902Z,16.00
2018-03-04T14:53:18.370Z,15.50
2018-03-04T14:55:46.930Z,15.00
2018-03-04T14:58:15.373Z,14.70
2018-03-04T15:00:44.667Z,13.80
2018-03-04T15:03:13.890Z,13.40
2018-03-04T15:05:42.499Z,13.50
2018-03-04T15:08:12.416Z,13.20
2018-03-04T15:10:40.874Z,13.00
2018-03-04T15:13:09.298Z,12.80
2018-03-04T15:15:37.700Z,12.80
2018-03-04T15:18:06.282Z,12.70
2018-03-04T15:20:34.990Z,12.60
2018-03-04T15:23:03.608Z,12.40
2018-03-04T15:25:32.215Z,12.10
2018-03-04T15:28:01.535Z,11.80
2018-03-04T15:30:30.757Z,11.70
2018-03-04T15:32:59.217Z,11.70
2018-03-04T15:35:28.680Z,11.60
2018-03-04T15:37:57.110Z,11.50
2018-03-04T15:40:26.251Z,11.50
2018-03-04T15:42:54.903Z,11.40
2018-03-04T15:45:23.300Z,11.40
2018-03-04T15:47:51.755Z,11.30
2018-03-04T15:50:20.538Z,11.30
2018-03-04T15:52:49.264Z,11.20
2018-03-04T15:55:18.778Z,10.80
2018-03-04T15:57:47.327Z,10.80
2018-03-04T16:00:15.702Z,10.70
2018-03-04T16:02:44.095Z,10.70
2018-03-04T16:05:12.514Z,10.60
2018-03-04T16:07:41.790Z,10.40
2018-03-04T16:10:10.251Z,10.30
2018-03-04T16:12:38.950Z,10.40
2018-03-04T16:15:07.534Z,10.40
2018-03-04T16:17:35.986Z,10.40
2018-03-04T16:20:04.437Z,10.20
2018-03-04T16:22:33.800Z,10.00
2018-03-04T16:25:02.305Z,10.00
2018-03-04T16:27:30.900Z,10.00
2018-03-04T16:29:59.440Z,9.80
2018-03-04T16:32:28.261Z,9.60
2018-03-04T16:34:57.851Z,9.20
2018-03-04T16:37:26.254Z,9.20
2018-03-04T16:39:54.659Z,9.00
2018-03-04T16:42:23.043Z,8.90
2018-03-04T16:44:51.446Z,8.80
2018-03-04T16:47:20.765Z,8.70
2018-03-04T16:49:49.347Z,8.60
2018-03-04T16:52:17.932Z,8.50
2018-03-04T16:54:46.501Z,8.40
2018-03-04T16:57:14.895Z,8.20
2018-03-04T16:59:43.314Z,8.00
2018-03-04T17:02:11.733Z,7.90
2018-03-04T17:04:40.500Z,7.80
2018-03-04T17:07:09.255Z,7.70
2018-03-04T17:09:37.695Z,7.60
2018-03-04T17:12:06.346Z,7.50
2018-03-04T17:14:34.767Z,7.50
2018-03-04T17:17:03.898Z,7.40
2018-03-04T17:19:32.472Z,7.30
2018-03-04T17:22:01.396Z,7.30
2018-03-04T17:24:31.460Z,7.20
2018-03-04T17:27:00.926Z,7.20
2018-03-04T17:29:29.322Z,7.00
2018-03-04T17:31:58.303Z,6.90
2018-03-04T17:34:26.695Z,6.80
2018-03-04T17:36:55.272Z,6.80
2018-03-04T17:39:23.686Z,6.70
2018-03-04T17:41:52.395Z,6.70
2018-03-04T17:44:21.646Z,6.70
2018-03-04T17:46:50.070Z,6.70
2018-03-04T17:49:19.239Z,6.70
2018-03-04T17:51:47.746Z,6.70
2018-03-04T17:54:17.768Z,6.80
2018-03-04T17:56:46.194Z,6.80
2018-03-04T17:59:15.280Z,6.80
2018-03-04T18:01:43.926Z,6.80
2018-03-04T18:04:13.299Z,6.80
2018-03-04T18:06:46.189Z,6.70
2018-03-04T18:09:14.820Z,6.70
2018-03-04T18:11:43.832Z,6.70
2018-03-04T18:14:13.015Z,6.70
2018-03-04T18:16:42.461Z,6.60
2018-03-04T18:19:10.901Z,6.60
2018-03-04T18:21:39.341Z,6.60
2018-03-04T18:24:07.800Z,6.60
2018-03-04T18:26:36.199Z,6.50
2018-03-04T18:29:05.398Z,6.50
2018-03-04T18:31:34.662Z,6.50
2018-03-04T18:34:03.325Z,6.50
2018-03-04T18:36:31.718Z,6.50
2018-03-04T18:39:00.116Z,6.40
2018-03-04T18:41:28.852Z,6.40
2018-03-04T18:43:57.492Z,6.30
2018-03-04T18:46:26.692Z,6.40
2018-03-04T18:48:56.339Z,6.40
2018-03-04T18:51:24.746Z,6.40
2018-03-04T18:53:55.028Z,6.40
2018-03-04T18:56:24.263Z,6.40
2018-03-04T18:58:52.701Z,6.40
2018-03-04T19:01:21.750Z,6.40
2018-03-04T19:03:54.498Z,6.40
2018-03-04T19:06:22.971Z,6.30
2018-03-04T19:08:51.707Z,6.30
2018-03-04T19:11:21.265Z,6.20
2018-03-04T19:13:49.842Z,6.20
2018-03-04T19:16:19.018Z,6.10
2018-03-04T19:18:47.659Z,6.10
2018-03-04T19:21:16.616Z,6.00
2018-03-04T19:23:45.370Z,6.00
2018-03-04T19:26:14.087Z,5.90
2018-03-04T19:28:43.234Z,5.90
2018-03-04T19:31:13.299Z,5.90
2018-03-04T19:33:42.157Z,5.80
2018-03-04T19:36:10.602Z,5.70
2018-03-04T19:38:39.389Z,5.70
2018-03-04T19:41:08.658Z,5.70
2018-03-04T19:43:38.017Z,5.70
2018-03-04T19:46:06.579Z,5.60
2018-03-04T19:48:35.629Z,5.70
2018-03-04T19:51:04.938Z,5.60
2018-03-04T19:53:34.388Z,5.70
2018-03-04T19:56:02.974Z,5.70
2018-03-04T19:58:31.358Z,5.70
2018-03-04T20:01:00.167Z,5.70
2018-03-04T20:03:30.274Z,5.60
2018-03-04T20:05:59.968Z,5.60
2018-03-04T20:08:29.465Z,5.60
2018-03-04T20:10:57.850Z,5.50
2018-03-04T20:13:26.475Z,5.60
2018-03-04T20:15:55.861Z,5.50
2018-03-04T20:18:24.468Z,5.50
2018-03-04T20:20:54.395Z,5.30
2018-03-04T20:23:23.669Z,5.30
2018-03-04T20:25:52.388Z,5.30
2018-03-04T20:28:22.591Z,5.30
2018-03-04T20:30:51.924Z,5.30
2018-03-04T20:33:21.572Z,5.30
2018-03-04T20:35:51.345Z,5.30
2018-03-04T20:38:21.088Z,5.20
2018-03-04T20:40:50.162Z,5.20
2018-03-04T20:43:19.760Z,5.10
2018-03-04T20:45:49.479Z,5.10
2018-03-04T20:48:18.063Z,5.10
2018-03-04T20:50:47.651Z,5.10
2018-03-04T20:53:16.050Z,5.10
2018-03-04T20:55:45.457Z,5.10
2018-03-04T20:58:14.675Z,5.00
2018-03-04T21:00:43.098Z,5.00
2018-03-04T21:03:11.528Z,4.90
2018-03-04T21:05:41.518Z,4.80
2018-03-04T21:08:10.040Z,4.90
2018-03-04T21:10:38.483Z,4.80
2018-03-04T21:13:07.261Z,4.80
2018-03-04T21:15:36.205Z,4.70
2018-03-04T21:18:05.403Z,4.60
2018-03-04T21:20:33.839Z,4.60
2018-03-04T21:23:02.284Z,4.60
2018-03-04T21:25:30.820Z,4.50
2018-03-04T21:27:59.244Z,4.50
2018-03-04T21:30:28.754Z,4.50
2018-03-04T21:32:58.192Z,4.50
2018-03-04T21:35:28.701Z,4.50
2018-03-04T21:37:57.448Z,4.40
2018-03-04T21:40:27.388Z,4.40
2018-03-04T21:42:56.164Z,4.30
2018-03-04T21:45:26.618Z,4.50
2018-03-04T21:47:55.097Z,4.50
2018-03-04T21:50:23.564Z,4.50
2018-03-04T21:52:52.793Z,4.50
2018-03-04T21:55:21.251Z,4.50
2018-03-04T21:57:49.630Z,4.50
2018-03-04T22:00:18.099Z,4.50
2018-03-04T22:02:46.529Z,4.60
2018-03-04T22:05:15.057Z,4.50
2018-03-04T22:07:43.522Z,4.50
2018-03-04T22:10:12.761Z,4.60
2018-03-04T22:12:41.879Z,4.50
2018-03-04T22:15:10.373Z,4.60
2018-03-04T22:17:40.133Z,4.60
2018-03-04T22:20:10.070Z,4.50
2018-03-04T22:22:38.535Z,4.60
2018-03-04T22:25:07.135Z,4.50
2018-03-04T22:27:35.569Z,4.60
2018-03-04T22:30:04.910Z,4.60
2018-03-04T22:32:34.068Z,4.50
2018-03-04T22:35:03.526Z,4.60
2018-03-04T22:37:33.133Z,4.60
2018-03-04T22:40:01.855Z,4.60
2018-03-04T22:42:30.695Z,4.60
2018-03-04T22:44:59.183Z,4.50
2018-03-04T22:47:27.554Z,4.50
2018-03-04T22:49:56.192Z,4.40
2018-03-04T22:52:25.640Z,4.40
2018-03-04T22:54:54.177Z,4.40
2018-03-04T22:57:23.772Z,4.40
2018-03-04T22:59:52.136Z,4.30
2018-03-04T23:02:20.594Z,4.40
2018-03-04T23:04:49.127Z,4.30
2018-03-04T23:07:17.862Z,4.30
2018-03-04T23:09:46.305Z,4.30
2018-03-04T23:12:14.680Z,4.20
2018-03-04T23:14:44.187Z,4.30
2018-03-04T23:17:13.483Z,4.20
2018-03-04T23:19:41.863Z,4.20
2018-03-04T23:22:11.006Z,4.10
2018-03-04T23:24:39.583Z,4.10
2018-03-04T23:27:07.963Z,4.10
2018-03-04T23:29:36.414Z,4.10
2018-03-04T23:32:04.801Z,4.10
2018-03-04T23:34:33.177Z,4.10
2018-03-04T23:37:01.572Z,4.10
2018-03-04T23:39:30.266Z,4.00
2018-03-04T23:41:59.763Z,4.00
2018-03-04T23:44:29.023Z,3.90
2018-03-04T23:46:58.892Z,3.90
2018-03-04T23:49:27.586Z,3.90
2018-03-04T23:51:56.048Z,3.90
2018-03-04T23:54:24.529Z,3.90
2018-03-04T23:56:53.010Z,3.90
2018-03-04T23:59:21.427Z,3.80
